Current Conditions - Area Ports

 

CYWH - Victoria Harbour, British Columbia, Canada
Distance from station: WSW 10km
Updated: 11/22/2017 9:00pm
NOT Current
Light rain, Showers, Overcast
Light rain, Showers, Overcast
 Wind from WSW
Wind: WSW 22 km/h
Temperature: 13°C
Dew Point: 11°C
Humidity: 88%
Barometer: 1008.1 hPa
Summary: Light rain, Showers
Clouds: Overcast
Visibility: 13 km
Cloud details: Few Clouds 244 m
Mostly cloudy 762 m
Overcast 1219 m
2017/11/23 05:00 CYWH 230500Z 24012KT 8SM -SHRA FEW008 BKN025TCU OVC040 13/11 A2977 RMK CF2TCU3SC3 LAST STFD OBS/NEXT 231400 UTC SLP083
KFHR - Friday Harbor, Washington, USA
Distance from station: ENE 19km
Updated: 11/23/2017 3:53am
Mostly cloudy
Mostly cloudy
 
Temperature: 13°C
Dew Point: 8°C
Humidity: 72%
Barometer: 1009.1 hPa
Clouds: Mostly cloudy
Visibility: 16 km
Cloud details: Mostly cloudy 2134 m
2017/11/23 11:53 KFHR 231153Z AUTO 10SM BKN070 13/08 A2980 RMK AO2 SLP091 60003 70023 T01330083 10139 20128 50001
 
KORS - Eastsound/Orcas, Washington, USA
Distance from station: NE 38km
Updated: 11/23/2017 4:35am
Overcast
Overcast
 Wind from varies
Wind: varies 11 km/h, Gust: 20 km/h
Temperature: 15°C
Dew Point: 8°C
Humidity: 63%
Barometer: 1008.8 hPa
Clouds: Overcast
Visibility: 16 km
Cloud details: Partly cloudy 1981 m
Overcast 2591 m
2017/11/23 12:35 KORS 231235Z AUTO VRB06G11KT 10SM SCT065 OVC085 15/08 A2979 RMK AO2
KNUW - Whidbey Is. Nas, Washington, USA
Distance from station: ESE 47km
Updated: 11/23/2017 3:56am
Overcast
Overcast
 Wind from SE
Wind: SE 9 km/h
Temperature: 13°C
Dew Point: 11°C
Humidity: 88%
Barometer: 1010.8 hPa
Clouds: Overcast
Visibility: 16 km
Cloud details: Overcast 1128 m
2017/11/23 11:56 KNUW 231156Z AUTO 13005KT 10SM OVC037 13/11 A2985 RMK AO2 SLP107 60009 70013 T01330106 10156 20128 50001 $
 
CWEZ - Saturna Isl (map, British Columbia, Canada
Distance from station: NNE 40km
Updated: 11/23/2017 4:00am

 Wind from WSW
Wind: WSW 9 km/h
Temperature: 13°C
Dew Point: 8°C
Humidity: 72%
2017/11/23 12:00 CWEZ 231200Z AUTO 25005KT 13/08 RMK AO1 0004 SLP084 T01300075 50002
CYCD - Nanaimo Airport, British Columbia, Canada
Distance from station: NW 80km
Updated: 11/22/2017 9:00pm
NOT Current
Light rain, Showers, Nearby fog, Overcast
Light rain, Showers, Nearby fog, Overcast
 Wind from calm
Wind: Calm
Temperature: 12°C
Dew Point: 12°C
Humidity: 100%
Barometer: 1006.4 hPa
Summary: Light rain, Showers, Nearby fog
Clouds: Overcast
Visibility: 13 km
Cloud details: Few Clouds 305 m
Few Clouds 610 m
Mostly cloudy 1372 m
Overcast 2134 m
2017/11/23 05:00 CYCD 230500Z 00000KT 8SM -SHRA VCFG FEW010 FEW020 BKN045TCU OVC070 12/12 A2972 RMK SF1SC1TCU3AC3 LAST OBS/NEXT 231400 UTC SLP066
 
CWVF - Sand Heads (ls), British Columbia, Canada
Distance from station: N 72km
Updated: 11/22/2017 11:15pm
NOT Current

 Wind from SSW
Wind: SSW 30 km/h
Temperature: 15°C
2017/11/23 07:15 CWVF 230715Z AUTO 20016KT 15/ RMK AO1 PK WND 21019/0700 T0146
CWQK - Race Rocks Autob, British Columbia, Canada
Distance from station: SW 26km
Updated: 11/23/2017 4:00am

 Wind from W
Wind: W 37 km/h
Temperature: 13°C
Dew Point: 10°C
Humidity: 82%
2017/11/23 12:00 CWQK 231200Z AUTO 28020KT 13/10 RMK AO1 PK WND 29027/1141 SLP086 T01270098 50000
 
CWSP - Sheringham Autob, British Columbia, Canada
Distance from station: W 49km
Updated: 11/23/2017 4:00am

 Wind from WNW
Wind: WNW 22 km/h
Temperature: 12°C
Dew Point: 11°C
Humidity: 94%
2017/11/23 12:00 CWSP 231200Z AUTO 29012KT 12/11 RMK AO1 0PAST HR 8005 SLP095 P0004 T01170108 50010